Hammonton, New Jersey
Current Conditions -  °F | °C
As of 5:54 AM on Friday 19 Dec 2014 (Local Time) from KACY Reporting Station
Overcast Overcast  
Wind Chill: 27°   Ceiling: 3400
Heat Index: 35°   Visibility: 10mi
Dew Point: 25°   Wind: 10mph
Humidity: 67%   Direction: 280°W
Pressure: 30.04"   Gusts: NA
Location:  39.64°N, 74.8°W
Report Text: KACY 191054Z 28009KT 10SM OVC034 02/M04 A3004 RMK AO2 SLP172 T00171039
Loading
Personal Weather Stations






























Interactive Weather Map New forecast layout! Learn more

10-Day Weather Forecast

Advertisements
Track Severe Weather on mobile